Time;durP1;ratioP1;P1;durP2;ratioP2;P2;SDS_P1;SDS_P2;PMS_P1;PMS_P2;Temp;Humidity;BMP_temperature;BMP_pressure;BME280_temperature;BME280_humidity;BME280_pressure;Samples;Min_cycle;Max_cycle;Signal;HPM_P1;HPM_P2
2022/08/20 00:02:15;;;;;;;15.60;14.30;;;26.70;71.50;;;;;;5050132;28;20784;-70
2022/08/20 00:04:44;;;;;;;16.63;15.33;;;26.70;71.40;;;;;;5048502;28;20450;-71
2022/08/20 00:07:15;;;;;;;16.60;15.20;;;26.70;71.50;;;;;;5062251;28;20477;-70
2022/08/20 00:09:45;;;;;;;14.93;13.63;;;26.70;71.40;;;;;;5046501;28;20518;-69
2022/08/20 00:12:17;;;;;;;14.57;13.43;;;26.70;71.40;;;;;;5048016;28;20566;-69
2022/08/20 00:14:45;;;;;;;13.93;12.93;;;26.70;71.10;;;;;;5051296;28;20866;-71
2022/08/20 00:17:14;;;;;;;14.70;13.50;;;26.70;71.30;;;;;;5050227;28;20478;-71
2022/08/20 00:19:42;;;;;;;13.87;12.77;;;26.70;71.20;;;;;;5058887;28;20532;-69
2022/08/20 00:22:10;;;;;;;14.07;12.97;;;26.70;71.30;;;;;;5067485;28;20509;-69
2022/08/20 00:24:38;;;;;;;12.43;11.50;;;26.70;71.20;;;;;;5042654;28;20488;-69
2022/08/20 00:27:08;;;;;;;14.30;12.90;;;26.70;71.10;;;;;;5059662;28;20497;-71
2022/08/20 00:29:36;;;;;;;14.90;13.70;;;26.70;71.10;;;;;;5045664;28;20841;-71
2022/08/20 00:32:05;;;;;;;13.47;12.47;;;26.70;71.10;;;;;;5058732;28;20565;-69
2022/08/20 00:34:33;;;;;;;12.60;11.60;;;26.60;71.00;;;;;;5040875;28;20453;-70
2022/08/20 00:37:01;;;;;;;15.47;13.57;;;26.60;71.20;;;;;;5052115;28;20501;-69
2022/08/20 00:39:29;;;;;;;12.77;11.77;;;26.60;71.10;;;;;;5051197;28;20786;-69
2022/08/20 00:41:58;;;;;;;12.03;11.13;;;26.60;71.00;;;;;;5062728;28;20526;-69
2022/08/20 00:44:28;;;;;;;14.33;13.30;;;26.70;71.00;;;;;;5060297;28;20485;-69
2022/08/20 00:46:56;;;;;;;14.70;13.60;;;26.60;71.00;;;;;;5058251;28;20535;-69
2022/08/20 00:49:27;;;;;;;13.60;12.50;;;26.60;71.00;;;;;;5056958;28;20527;-69
2022/08/20 00:51:59;;;;;;;12.37;11.37;;;26.60;71.10;;;;;;5048531;28;20463;-70
2022/08/20 00:54:33;;;;;;;12.57;11.67;;;26.60;71.10;;;;;;5048139;28;21233;-69
2022/08/20 00:57:04;;;;;;;12.20;11.30;;;26.60;71.20;;;;;;5047223;28;20449;-70
2022/08/20 00:59:38;;;;;;;11.57;10.67;;;26.60;71.10;;;;;;5068366;28;20449;-69
2022/08/20 01:02:09;;;;;;;12.07;10.97;;;26.60;71.10;;;;;;5059587;28;20453;-70
2022/08/20 01:04:38;;;;;;;12.30;11.30;;;26.60;71.10;;;;;;5056703;28;20491;-71
2022/08/20 01:07:07;;;;;;;12.13;11.17;;;26.60;71.10;;;;;;5065445;28;20963;-72
2022/08/20 01:09:36;;;;;;;11.40;10.60;;;26.60;71.10;;;;;;5068293;28;20462;-70
2022/08/20 01:12:25;;;;;;;12.80;11.80;;;26.60;71.00;;;;;;5045931;28;20450;-70
2022/08/20 01:14:57;;;;;;;12.03;10.93;;;26.60;71.10;;;;;;5050315;28;20533;-70
2022/08/20 01:17:28;;;;;;;11.33;10.53;;;26.60;70.90;;;;;;5041504;28;20530;-71
2022/08/20 01:20:00;;;;;;;12.00;11.13;;;26.60;70.90;;;;;;5044828;28;20453;-70
2022/08/20 01:25:28;;;;;;;11.53;10.70;;;26.60;71.10;;;;;;5051675;28;20518;-71
2022/08/20 01:27:58;;;;;;;11.67;10.87;;;26.60;71.10;;;;;;5062435;28;20501;-71
2022/08/20 01:30:28;;;;;;;12.43;11.47;;;26.60;71.10;;;;;;5057465;28;20525;-71
2022/08/20 01:32:57;;;;;;;10.83;10.03;;;26.60;71.10;;;;;;5055031;28;20540;-69
2022/08/20 01:35:28;;;;;;;11.90;11.00;;;26.60;71.20;;;;;;5043589;28;20458;-69
2022/08/20 01:37:56;;;;;;;11.90;11.00;;;26.60;71.10;;;;;;5049510;28;20486;-69
2022/08/20 01:40:38;;;;;;;11.03;10.23;;;26.60;71.20;;;;;;5050933;28;20968;-69
2022/08/20 01:43:08;;;;;;;11.10;10.20;;;26.50;71.10;;;;;;5052164;28;20480;-70
2022/08/20 01:45:38;;;;;;;11.63;10.73;;;26.50;71.40;;;;;;5065447;28;20925;-69
2022/08/20 01:48:07;;;;;;;11.50;10.60;;;26.50;71.30;;;;;;5048204;28;20464;-69
2022/08/20 01:50:41;;;;;;;10.90;10.00;;;26.50;71.30;;;;;;5050454;28;20454;-70
2022/08/20 01:53:16;;;;;;;11.80;10.90;;;26.50;71.30;;;;;;5066956;28;20498;-71
2022/08/20 01:55:45;;;;;;;10.70;9.80;;;26.60;71.20;;;;;;5050214;28;20753;-69
2022/08/20 01:58:14;;;;;;;10.63;9.80;;;26.60;71.20;;;;;;5051675;28;20441;-69
2022/08/20 02:00:43;;;;;;;11.83;10.93;;;26.60;71.20;;;;;;5045990;28;20876;-70
2022/08/20 02:03:11;;;;;;;11.67;10.57;;;26.60;71.30;;;;;;5045693;28;20495;-71
2022/08/20 02:05:40;;;;;;;9.90;9.10;;;26.50;71.10;;;;;;5045823;28;20543;-71
2022/08/20 02:08:08;;;;;;;10.50;9.77;;;26.50;71.00;;;;;;5051523;28;20953;-70
2022/08/20 02:10:36;;;;;;;9.67;8.87;;;26.50;71.00;;;;;;5065949;28;20524;-70
2022/08/20 02:13:07;;;;;;;10.13;9.30;;;26.50;71.10;;;;;;5056814;28;20780;-71
2022/08/20 02:15:37;;;;;;;9.60;8.87;;;26.50;71.00;;;;;;5050969;28;20536;-69
2022/08/20 02:18:13;;;;;;;11.23;10.33;;;26.50;70.90;;;;;;5052299;28;20482;-70
2022/08/20 02:20:42;;;;;;;10.57;9.77;;;26.50;71.00;;;;;;5056739;28;20479;-70
2022/08/20 02:23:11;;;;;;;11.27;10.10;;;26.50;71.10;;;;;;5063927;28;20456;-71
2022/08/20 02:25:42;;;;;;;9.43;8.53;;;26.50;71.00;;;;;;5061833;28;20967;-70
2022/08/20 02:28:13;;;;;;;10.43;9.57;;;26.50;71.00;;;;;;5048897;28;20588;-70
2022/08/20 02:30:46;;;;;;;10.83;9.80;;;26.50;71.10;;;;;;5047820;28;20487;-70
2022/08/20 02:33:17;;;;;;;15.93;9.77;;;26.50;71.10;;;;;;5044604;28;20461;-69
2022/08/20 02:35:47;;;;;;;9.40;8.70;;;26.50;71.00;;;;;;5036833;28;20890;-70
2022/08/20 02:38:16;;;;;;;8.93;8.17;;;26.50;70.90;;;;;;5045356;28;20449;-70
2022/08/20 02:40:47;;;;;;;9.40;8.70;;;26.50;71.00;;;;;;5046157;28;20484;-70
2022/08/20 02:43:26;;;;;;;9.30;8.60;;;26.50;70.90;;;;;;5041259;28;20521;-70
2022/08/20 02:45:56;;;;;;;9.57;8.77;;;26.50;70.80;;;;;;5041374;28;20438;-69
2022/08/20 02:48:24;;;;;;;9.10;8.50;;;26.50;70.80;;;;;;5038642;28;20514;-70
2022/08/20 02:50:55;;;;;;;9.07;8.33;;;26.50;70.80;;;;;;5038247;28;20450;-69
2022/08/20 02:53:26;;;;;;;8.50;7.90;;;26.40;70.70;;;;;;5056004;28;21221;-69
2022/08/20 02:55:55;;;;;;;7.87;7.17;;;26.40;70.70;;;;;;5053428;28;20442;-70
2022/08/20 02:58:23;;;;;;;11.57;10.00;;;26.40;70.60;;;;;;5074148;28;20460;-70
2022/08/20 03:00:51;;;;;;;8.17;7.57;;;26.40;70.60;;;;;;5063142;28;20897;-72
2022/08/20 03:03:21;;;;;;;7.70;7.07;;;26.40;70.60;;;;;;5045593;28;20512;-70
2022/08/20 03:05:51;;;;;;;7.97;7.37;;;26.40;70.70;;;;;;5040596;28;20461;-70
2022/08/20 03:08:20;;;;;;;7.13;6.63;;;26.40;70.70;;;;;;5062750;28;20508;-69
2022/08/20 03:10:50;;;;;;;7.27;6.67;;;26.40;70.50;;;;;;5048321;28;20568;-71
2022/08/20 03:13:20;;;;;;;8.20;7.50;;;26.40;70.60;;;;;;5052675;28;20458;-70
2022/08/20 03:15:50;;;;;;;6.80;6.30;;;26.40;70.40;;;;;;5039115;28;20585;-74
2022/08/20 03:18:32;;;;;;;6.40;5.57;;;26.40;70.40;;;;;;5049569;28;20462;-70
2022/08/20 03:21:01;;;;;;;6.13;5.73;;;26.30;70.40;;;;;;5040614;28;20675;-69
2022/08/20 03:23:33;;;;;;;6.23;5.73;;;26.40;70.40;;;;;;5053481;28;20455;-70
2022/08/20 03:26:07;;;;;;;5.40;4.90;;;26.30;70.30;;;;;;5068265;28;20459;-70
2022/08/20 03:28:36;;;;;;;6.20;5.70;;;26.30;70.30;;;;;;5065387;28;20520;-69
2022/08/20 03:31:07;;;;;;;6.23;5.70;;;26.40;70.30;;;;;;5064836;28;20590;-69
2022/08/20 03:33:38;;;;;;;5.33;4.93;;;26.30;70.20;;;;;;5059093;28;20544;-69
2022/08/20 03:36:16;;;;;;;5.00;4.70;;;26.30;70.30;;;;;;5066638;28;20524;-70
2022/08/20 03:38:54;;;;;;;5.60;5.20;;;26.30;70.20;;;;;;5051906;28;20449;-70
2022/08/20 03:41:22;;;;;;;5.20;4.87;;;26.30;70.20;;;;;;5049548;28;20504;-70
2022/08/20 03:43:50;;;;;;;4.83;4.43;;;26.30;70.10;;;;;;5055728;28;20454;-70
2022/08/20 03:46:19;;;;;;;6.13;5.07;;;26.30;70.00;;;;;;5054956;28;20464;-69
2022/08/20 03:48:52;;;;;;;4.83;4.50;;;26.30;70.00;;;;;;5057956;28;20495;-70
2022/08/20 03:51:28;;;;;;;4.90;4.60;;;26.30;70.00;;;;;;5064745;28;20446;-69
2022/08/20 03:53:56;;;;;;;5.40;4.97;;;26.30;69.90;;;;;;5062018;28;20496;-70
2022/08/20 03:56:25;;;;;;;4.40;4.00;;;26.30;69.80;;;;;;5066835;28;20488;-70
2022/08/20 03:58:53;;;;;;;4.97;4.57;;;26.30;69.80;;;;;;5055091;28;20487;-70
2022/08/20 04:01:21;;;;;;;4.43;4.13;;;26.30;69.80;;;;;;5065874;28;20543;-70
2022/08/20 04:04:11;;;;;;;5.93;4.33;;;26.30;69.80;;;;;;5044732;28;20487;-69
2022/08/20 04:06:40;;;;;;;4.23;3.93;;;26.30;69.70;;;;;;5050391;28;20545;-71
2022/08/20 04:09:09;;;;;;;4.67;4.37;;;26.30;69.80;;;;;;5053462;28;20478;-69
2022/08/20 04:11:39;;;;;;;5.40;4.03;;;26.30;69.90;;;;;;5052411;28;20498;-69
2022/08/20 04:14:07;;;;;;;4.03;3.83;;;26.30;69.90;;;;;;5055121;28;20450;-69
2022/08/20 04:16:39;;;;;;;5.37;4.97;;;26.30;69.90;;;;;;5064267;28;20518;-70
2022/08/20 04:19:07;;;;;;;4.00;3.70;;;26.30;69.90;;;;;;5067344;28;20466;-70
2022/08/20 04:21:37;;;;;;;4.67;4.30;;;26.30;69.80;;;;;;5049177;28;20465;-69
2022/08/20 04:24:06;;;;;;;5.27;4.87;;;26.30;69.90;;;;;;5044672;28;20502;-69
2022/08/20 04:26:36;;;;;;;4.20;3.90;;;26.30;69.80;;;;;;5051334;28;20488;-70
2022/08/20 04:29:04;;;;;;;5.17;4.87;;;26.30;69.80;;;;;;5055994;28;21013;-70
2022/08/20 04:31:33;;;;;;;3.80;3.60;;;26.30;69.90;;;;;;5051654;28;21056;-70
2022/08/20 04:34:03;;;;;;;4.30;4.00;;;26.30;69.80;;;;;;5055074;28;20853;-69
2022/08/20 04:36:31;;;;;;;4.13;3.80;;;26.30;69.90;;;;;;5062991;28;20458;-69
2022/08/20 04:39:01;;;;;;;4.47;4.07;;;26.30;69.80;;;;;;5065739;28;20441;-70
2022/08/20 04:41:29;;;;;;;4.77;4.33;;;26.30;69.80;;;;;;5060701;28;20524;-71
2022/08/20 04:43:58;;;;;;;4.30;4.00;;;26.30;69.70;;;;;;5050745;28;20490;-73
2022/08/20 04:46:27;;;;;;;3.63;3.43;;;26.30;69.70;;;;;;5068884;28;20950;-69
2022/08/20 04:48:57;;;;;;;4.50;4.20;;;26.20;69.70;;;;;;5065268;28;20443;-69
2022/08/20 04:51:25;;;;;;;3.77;3.57;;;26.30;69.70;;;;;;5063973;28;20437;-70
2022/08/20 04:53:55;;;;;;;3.67;3.43;;;26.30;69.70;;;;;;5060172;28;20460;-69
2022/08/20 04:56:27;;;;;;;4.20;3.90;;;26.30;69.60;;;;;;5055611;28;20528;-69
2022/08/20 04:58:58;;;;;;;3.70;3.40;;;26.30;69.50;;;;;;5044983;28;20446;-69
2022/08/20 05:01:27;;;;;;;5.03;4.00;;;26.20;69.50;;;;;;5037911;28;20864;-71
2022/08/20 05:03:56;;;;;;;4.30;4.00;;;26.20;69.50;;;;;;5047808;28;20507;-70
2022/08/20 05:06:28;;;;;;;3.63;3.33;;;26.20;69.60;;;;;;5043292;28;20446;-69
2022/08/20 05:08:58;;;;;;;4.07;3.60;;;26.20;69.60;;;;;;5050857;28;20773;-69
2022/08/20 05:11:29;;;;;;;4.37;4.07;;;26.20;69.60;;;;;;5053092;28;20944;-70
2022/08/20 05:14:05;;;;;;;3.83;3.63;;;26.20;69.60;;;;;;5047239;28;20491;-70
2022/08/20 05:16:37;;;;;;;3.40;3.20;;;26.20;69.60;;;;;;5054126;28;20597;-69
2022/08/20 05:19:07;;;;;;;4.57;3.53;;;26.20;69.50;;;;;;5066719;28;20458;-72
2022/08/20 05:21:36;;;;;;;4.03;3.73;;;26.20;69.60;;;;;;5057247;28;20458;-70
2022/08/20 05:24:05;;;;;;;4.33;4.03;;;26.20;69.60;;;;;;5063868;28;20486;-70
2022/08/20 05:26:34;;;;;;;4.00;3.73;;;26.20;69.60;;;;;;5060085;28;20527;-70
2022/08/20 05:29:05;;;;;;;4.40;4.10;;;26.20;69.50;;;;;;5058072;28;20985;-71
2022/08/20 05:31:34;;;;;;;4.57;4.17;;;26.20;69.60;;;;;;5047055;28;20918;-70
2022/08/20 05:34:05;;;;;;;3.40;3.20;;;26.20;69.70;;;;;;5042349;28;20471;-69
2022/08/20 05:36:35;;;;;;;3.70;3.50;;;26.20;69.70;;;;;;5039643;28;20449;-70
2022/08/20 05:39:05;;;;;;;4.33;4.03;;;26.20;69.70;;;;;;5037317;28;20479;-69
2022/08/20 05:41:35;;;;;;;4.63;3.60;;;26.20;70.00;;;;;;5034211;28;20490;-69
2022/08/20 05:44:04;;;;;;;3.53;3.33;;;26.20;69.80;;;;;;5036546;28;20651;-71
2022/08/20 05:46:34;;;;;;;3.33;3.10;;;26.20;69.90;;;;;;5040717;28;20450;-70
2022/08/20 05:49:03;;;;;;;2.90;2.70;;;26.20;69.50;;;;;;5043937;28;21039;-71
2022/08/20 05:51:31;;;;;;;3.70;3.40;;;26.20;69.60;;;;;;5043442;28;20506;-71
2022/08/20 05:54:00;;;;;;;3.70;3.40;;;26.20;69.70;;;;;;5050412;28;20463;-69
2022/08/20 05:56:29;;;;;;;3.67;3.37;;;26.20;69.50;;;;;;5046838;28;20464;-70
2022/08/20 05:59:02;;;;;;;3.80;3.60;;;26.20;69.60;;;;;;5048352;28;20927;-70
2022/08/20 06:01:31;;;;;;;3.70;3.40;;;26.20;69.70;;;;;;5045440;28;20518;-70
2022/08/20 06:06:45;;;;;;;3.70;3.50;;;26.20;69.80;;;;;;5051831;28;20538;-70
2022/08/20 06:09:16;;;;;;;3.93;3.63;;;26.20;69.70;;;;;;5043612;28;20486;-73
2022/08/20 06:12:01;;;;;;;4.13;3.83;;;26.20;69.80;;;;;;5043093;28;20789;-70
2022/08/20 06:14:31;;;;;;;3.40;3.20;;;26.20;69.80;;;;;;5045589;28;20527;-69
2022/08/20 06:17:05;;;;;;;4.37;4.07;;;26.20;69.70;;;;;;5036034;28;20837;-70
2022/08/20 06:19:35;;;;;;;3.27;2.97;;;26.20;69.80;;;;;;5038295;28;20457;-69
2022/08/20 06:22:04;;;;;;;3.57;3.33;;;26.20;69.80;;;;;;5034830;28;20873;-70
2022/08/20 06:24:45;;;;;;;3.40;3.20;;;26.20;69.90;;;;;;5038938;28;20862;-69
2022/08/20 06:27:16;;;;;;;3.57;3.27;;;26.20;69.70;;;;;;5042182;28;20597;-71
2022/08/20 06:29:46;;;;;;;3.53;3.30;;;26.20;69.70;;;;;;5036443;28;20462;-69
2022/08/20 06:32:14;;;;;;;3.13;2.93;;;26.20;69.50;;;;;;5039491;28;20449;-69
2022/08/20 06:34:42;;;;;;;3.37;3.17;;;26.30;69.40;;;;;;5041325;28;20505;-69
2022/08/20 06:37:20;;;;;;;3.10;2.90;;;26.30;69.40;;;;;;5034898;28;20472;-70
2022/08/20 06:39:48;;;;;;;3.07;2.87;;;26.30;69.60;;;;;;5043564;28;20454;-71
2022/08/20 06:42:18;;;;;;;3.50;3.30;;;26.30;69.40;;;;;;5034615;28;20950;-73
2022/08/20 06:44:49;;;;;;;3.17;2.97;;;26.30;69.40;;;;;;5041824;28;20484;-74
2022/08/20 06:47:19;;;;;;;3.60;3.40;;;26.30;69.50;;;;;;5039227;28;20975;-70
2022/08/20 06:49:48;;;;;;;4.13;2.97;;;26.30;69.60;;;;;;5033009;28;20452;-74
2022/08/20 06:52:17;;;;;;;4.50;3.53;;;26.30;69.40;;;;;;5038098;28;20504;-71
2022/08/20 06:54:46;;;;;;;4.80;3.47;;;26.30;69.40;;;;;;5046069;28;21357;-71
2022/08/20 06:57:15;;;;;;;3.53;3.20;;;26.30;69.60;;;;;;5043316;28;20504;-70
2022/08/20 06:59:44;;;;;;;3.40;3.17;;;26.30;69.40;;;;;;5042918;28;20847;-71
2022/08/20 07:02:23;;;;;;;3.70;3.20;;;26.30;69.50;;;;;;5036096;28;20547;-71
2022/08/20 07:04:57;;;;;;;4.40;4.10;;;26.40;69.80;;;;;;5045104;28;20443;-71
2022/08/20 07:07:26;;;;;;;6.20;3.67;;;26.40;69.60;;;;;;5042421;28;20512;-70
2022/08/20 07:10:00;;;;;;;4.13;3.13;;;26.40;69.70;;;;;;5053660;28;20483;-71
2022/08/20 07:12:28;;;;;;;4.47;3.97;;;26.40;69.60;;;;;;5046974;28;20457;-71
2022/08/20 07:14:56;;;;;;;3.73;3.50;;;26.40;69.60;;;;;;5060592;28;20539;-74
2022/08/20 07:17:26;;;;;;;3.10;2.90;;;26.40;69.60;;;;;;5041744;28;20575;-71
2022/08/20 07:19:54;;;;;;;4.30;3.93;;;26.40;69.60;;;;;;5045277;28;20481;-71
2022/08/20 07:22:23;;;;;;;4.43;3.80;;;26.40;69.30;;;;;;5040738;28;20491;-71
2022/08/20 07:24:52;;;;;;;3.90;3.60;;;26.40;69.50;;;;;;5053945;28;20449;-71
2022/08/20 07:27:22;;;;;;;4.40;3.80;;;26.40;69.40;;;;;;5061785;28;20437;-71
2022/08/20 07:32:44;;;;;;;4.13;3.70;;;26.40;69.50;;;;;;5057985;28;20452;-71
2022/08/20 07:35:17;;;;;;;3.87;3.57;;;26.40;69.30;;;;;;5059184;28;20940;-71
2022/08/20 07:37:48;;;;;;;3.87;3.47;;;26.40;69.50;;;;;;5061380;28;20529;-71
2022/08/20 07:40:21;;;;;;;3.10;2.90;;;26.40;69.50;;;;;;5050331;28;20556;-73
2022/08/20 07:42:53;;;;;;;3.47;3.17;;;26.40;69.40;;;;;;5063691;28;20442;-71
2022/08/20 07:45:23;;;;;;;4.13;3.83;;;26.50;69.30;;;;;;5065260;28;20450;-71
2022/08/20 07:47:54;;;;;;;4.00;3.60;;;26.50;69.20;;;;;;5051825;28;20470;-71
2022/08/20 07:50:25;;;;;;;4.37;3.93;;;26.50;69.20;;;;;;5062461;28;20465;-71
2022/08/20 07:52:53;;;;;;;4.77;3.87;;;26.50;69.30;;;;;;5055518;28;20450;-71
2022/08/20 07:55:22;;;;;;;4.27;3.97;;;26.50;69.30;;;;;;5058160;28;20476;-73
2022/08/20 07:57:50;;;;;;;4.27;3.70;;;26.50;69.00;;;;;;5049029;28;20459;-71
2022/08/20 08:00:20;;;;;;;3.97;3.67;;;26.60;69.10;;;;;;5056439;28;20497;-71
2022/08/20 08:02:49;;;;;;;5.47;3.67;;;26.60;69.30;;;;;;5059292;28;20617;-71
2022/08/20 08:05:19;;;;;;;4.73;4.20;;;26.60;69.10;;;;;;5059539;28;20444;-72
2022/08/20 08:07:47;;;;;;;4.17;3.87;;;26.60;69.00;;;;;;5050728;28;20542;-71
2022/08/20 08:10:21;;;;;;;3.43;3.23;;;26.60;68.90;;;;;;5048028;28;20494;-71
2022/08/20 08:12:53;;;;;;;3.67;3.47;;;26.60;68.90;;;;;;5055534;28;20561;-71
2022/08/20 08:15:26;;;;;;;3.13;2.93;;;26.60;68.70;;;;;;5051814;28;20454;-72
2022/08/20 08:17:56;;;;;;;4.20;3.50;;;26.60;68.70;;;;;;5057302;28;20900;-72
2022/08/20 08:20:25;;;;;;;4.33;3.33;;;26.70;68.70;;;;;;5045165;28;20462;-72
2022/08/20 08:22:54;;;;;;;4.07;3.77;;;26.70;69.00;;;;;;5060805;28;20948;-73
2022/08/20 08:25:22;;;;;;;5.40;3.70;;;26.70;69.00;;;;;;5049618;28;20461;-72
2022/08/20 08:27:50;;;;;;;4.30;3.90;;;26.70;69.10;;;;;;5053466;28;20942;-74
2022/08/20 08:30:19;;;;;;;4.20;3.90;;;26.70;69.00;;;;;;5049167;28;20458;-72
2022/08/20 08:35:37;;;;;;;4.63;4.30;;;26.80;68.70;;;;;;5046171;28;20457;-71
2022/08/20 08:38:08;;;;;;;3.83;3.53;;;26.80;69.10;;;;;;5060328;28;20437;-72
2022/08/20 08:40:41;;;;;;;3.70;3.40;;;26.80;68.70;;;;;;5051867;28;20549;-71
2022/08/20 08:43:13;;;;;;;3.40;3.20;;;26.80;68.70;;;;;;5061012;28;20481;-72
2022/08/20 08:45:56;;;;;;;4.13;3.83;;;26.80;68.80;;;;;;5054614;28;20452;-73
2022/08/20 08:48:30;;;;;;;3.37;3.10;;;26.80;68.70;;;;;;5064437;28;20888;-73
2022/08/20 08:51:02;;;;;;;3.70;3.50;;;26.80;68.30;;;;;;5063099;28;20927;-71
2022/08/20 08:53:37;;;;;;;3.47;3.10;;;26.80;68.50;;;;;;5065937;28;20535;-71
2022/08/20 08:56:09;;;;;;;3.67;3.47;;;26.90;68.70;;;;;;5057964;28;20769;-73
2022/08/20 08:58:38;;;;;;;3.70;3.40;;;26.90;68.60;;;;;;5043721;28;20455;-75
2022/08/20 09:01:11;;;;;;;3.30;3.00;;;26.90;68.60;;;;;;5056690;28;20537;-75
2022/08/20 09:04:03;;;;;;;4.27;3.90;;;26.90;68.70;;;;;;5057738;28;20492;-71
2022/08/20 09:06:33;;;;;;;4.33;3.87;;;27.00;68.60;;;;;;5061802;28;20946;-72
2022/08/20 09:09:04;;;;;;;3.80;3.50;;;27.00;68.00;;;;;;5047408;28;20457;-71
2022/08/20 09:11:47;;;;;;;3.30;3.10;;;27.00;68.00;;;;;;5035046;28;20498;-71
2022/08/20 09:14:15;;;;;;;3.27;2.97;;;27.00;68.20;;;;;;5046050;28;20675;-71
2022/08/20 09:16:43;;;;;;;3.60;3.40;;;27.00;67.90;;;;;;5061575;28;20474;-71
2022/08/20 09:19:20;;;;;;;4.07;3.50;;;27.00;67.80;;;;;;5050201;28;20508;-71
2022/08/20 09:21:50;;;;;;;4.77;3.57;;;27.00;67.80;;;;;;5065012;28;20452;-72
2022/08/20 09:24:18;;;;;;;4.07;3.67;;;27.10;67.90;;;;;;5058129;28;20502;-71
2022/08/20 09:26:46;;;;;;;3.50;3.20;;;27.10;68.50;;;;;;5060976;28;20490;-71
2022/08/20 09:29:15;;;;;;;3.57;3.33;;;27.10;68.50;;;;;;5047486;28;20459;-71
2022/08/20 09:31:44;;;;;;;3.57;3.37;;;27.10;68.50;;;;;;5050153;28;20528;-72
2022/08/20 09:34:13;;;;;;;3.13;2.83;;;27.10;68.10;;;;;;5058939;28;20777;-71
2022/08/20 09:36:41;;;;;;;3.17;2.97;;;27.10;68.20;;;;;;5056648;28;20454;-72
2022/08/20 09:39:11;;;;;;;3.27;3.00;;;27.10;68.40;;;;;;5045084;28;20517;-72
2022/08/20 09:41:40;;;;;;;3.50;3.30;;;27.20;68.60;;;;;;5048591;28;20446;-72
2022/08/20 09:44:08;;;;;;;3.23;3.03;;;27.20;68.70;;;;;;5047526;28;20484;-71
2022/08/20 09:46:36;;;;;;;3.50;3.20;;;27.20;68.60;;;;;;5062149;28;20462;-72
2022/08/20 09:49:05;;;;;;;3.83;3.57;;;27.20;68.60;;;;;;5040576;28;21010;-72
2022/08/20 09:51:35;;;;;;;3.37;3.17;;;27.20;68.80;;;;;;5061121;28;20459;-72
2022/08/20 09:54:06;;;;;;;3.90;3.60;;;27.20;68.50;;;;;;5052948;28;20477;-73
2022/08/20 09:56:35;;;;;;;3.20;3.00;;;27.30;68.50;;;;;;5067849;28;20478;-74
2022/08/20 09:59:04;;;;;;;3.33;3.13;;;27.30;68.70;;;;;;5048946;28;20556;-72
2022/08/20 10:01:33;;;;;;;4.10;3.70;;;27.30;68.40;;;;;;5054912;28;20477;-71
2022/08/20 10:04:01;;;;;;;3.73;3.43;;;27.30;68.50;;;;;;5044348;28;20498;-71
2022/08/20 10:06:29;;;;;;;2.90;2.40;;;27.30;68.30;;;;;;5059988;28;20451;-74
2022/08/20 10:09:04;;;;;;;3.60;3.37;;;27.30;68.40;;;;;;5046174;28;20456;-71
2022/08/20 10:11:33;;;;;;;3.00;2.80;;;27.30;68.20;;;;;;5055793;28;20458;-72
2022/08/20 10:14:02;;;;;;;4.83;4.33;;;27.30;68.30;;;;;;5051146;28;20554;-75
2022/08/20 10:16:31;;;;;;;3.40;3.10;;;27.40;68.00;;;;;;5056894;28;20524;-71
2022/08/20 10:18:59;;;;;;;3.20;3.00;;;27.40;68.20;;;;;;5051117;28;20496;-72
2022/08/20 10:21:29;;;;;;;2.97;2.77;;;27.40;67.90;;;;;;5050114;28;20557;-72
2022/08/20 10:23:57;;;;;;;2.57;2.43;;;27.40;68.00;;;;;;5048734;28;20471;-71
2022/08/20 10:26:26;;;;;;;2.93;2.73;;;27.40;68.10;;;;;;5048662;28;20470;-72
2022/08/20 10:28:55;;;;;;;3.40;3.10;;;27.40;68.00;;;;;;5056678;28;20533;-71
2022/08/20 10:31:24;;;;;;;3.07;2.87;;;27.50;68.10;;;;;;5057206;28;20458;-72
2022/08/20 10:33:53;;;;;;;3.13;2.93;;;27.50;67.90;;;;;;5053151;28;20470;-71
2022/08/20 10:36:21;;;;;;;3.67;3.37;;;27.50;67.90;;;;;;5050561;28;20513;-72
2022/08/20 10:38:49;;;;;;;3.40;3.10;;;27.50;67.80;;;;;;5058279;28;21815;-71
2022/08/20 10:41:18;;;;;;;2.77;2.67;;;27.50;67.70;;;;;;5052511;28;20455;-71
2022/08/20 10:43:46;;;;;;;3.40;3.20;;;27.60;67.80;;;;;;5048557;28;20450;-72
2022/08/20 10:46:15;;;;;;;2.77;2.57;;;27.60;67.70;;;;;;5054849;28;20494;-75
2022/08/20 10:48:45;;;;;;;2.40;2.30;;;27.60;67.60;;;;;;5060500;28;20462;-73
2022/08/20 10:51:13;;;;;;;2.90;2.70;;;27.70;67.40;;;;;;5049917;28;20520;-72
2022/08/20 10:53:42;;;;;;;3.67;3.23;;;27.70;67.50;;;;;;5058579;28;20541;-72
2022/08/20 10:56:10;;;;;;;2.70;2.60;;;27.70;67.40;;;;;;5054152;28;20887;-71
2022/08/20 10:58:42;;;;;;;2.30;2.20;;;27.70;67.40;;;;;;5059237;28;20433;-72
2022/08/20 11:01:11;;;;;;;2.80;2.60;;;27.70;67.30;;;;;;5043438;28;20472;-72
2022/08/20 11:04:00;;;;;;;3.20;3.00;;;27.60;67.20;;;;;;5050962;28;20487;-71
2022/08/20 11:06:28;;;;;;;2.53;2.43;;;27.70;67.30;;;;;;5046503;28;20902;-73
2022/08/20 11:08:56;;;;;;;2.53;2.40;;;27.60;67.20;;;;;;5055876;28;20461;-72
2022/08/20 11:11:24;;;;;;;2.70;2.50;;;27.70;67.20;;;;;;5047842;28;20494;-72
2022/08/20 11:13:52;;;;;;;2.50;2.40;;;27.70;67.10;;;;;;5052307;28;20959;-73
2022/08/20 11:16:21;;;;;;;2.70;2.53;;;27.70;67.20;;;;;;5053849;28;20566;-73
2022/08/20 11:18:49;;;;;;;2.60;2.50;;;27.70;67.40;;;;;;5043124;28;21060;-72
2022/08/20 11:21:19;;;;;;;3.00;2.80;;;27.70;67.30;;;;;;5051991;28;20447;-73
2022/08/20 11:23:47;;;;;;;2.53;2.43;;;27.60;67.10;;;;;;5052991;28;20589;-72
2022/08/20 11:26:22;;;;;;;3.10;2.90;;;27.60;67.20;;;;;;5044800;28;20456;-74
2022/08/20 11:28:51;;;;;;;2.97;2.77;;;27.60;67.10;;;;;;5052676;28;20485;-72
2022/08/20 11:31:19;;;;;;;2.83;2.63;;;27.60;67.10;;;;;;5047747;28;20438;-72
2022/08/20 11:33:47;;;;;;;2.63;2.53;;;27.60;67.10;;;;;;5053613;28;20488;-71
2022/08/20 11:36:15;;;;;;;2.80;2.60;;;27.50;66.70;;;;;;5060610;28;20511;-74
2022/08/20 11:38:45;;;;;;;2.90;2.70;;;27.50;67.30;;;;;;5052113;28;20488;-73
2022/08/20 11:41:13;;;;;;;2.30;2.20;;;27.50;66.80;;;;;;5052199;28;20521;-73
2022/08/20 11:43:41;;;;;;;2.40;2.30;;;27.50;66.60;;;;;;5059481;28;20498;-71
2022/08/20 11:46:31;;;;;;;2.43;2.33;;;27.50;66.50;;;;;;5055090;28;20546;-71
2022/08/20 11:49:00;;;;;;;2.20;2.10;;;27.50;66.70;;;;;;5058280;28;20489;-71
2022/08/20 11:51:29;;;;;;;2.40;2.30;;;27.40;66.70;;;;;;5057879;28;20849;-73
2022/08/20 11:54:03;;;;;;;2.37;2.27;;;27.40;66.90;;;;;;5059513;28;20554;-71
2022/08/20 11:56:33;;;;;;;2.30;2.20;;;27.40;67.10;;;;;;5063944;28;20494;-71
2022/08/20 11:59:01;;;;;;;2.40;2.30;;;27.40;67.00;;;;;;5043146;28;20497;-75
2022/08/20 12:01:30;;;;;;;2.50;2.30;;;27.40;67.10;;;;;;5053603;28;20534;-72
2022/08/20 12:03:58;;;;;;;3.40;2.87;;;27.40;67.50;;;;;;5070003;28;20539;-72
2022/08/20 12:06:30;;;;;;;2.37;2.27;;;27.30;68.10;;;;;;5058832;28;20492;-71
2022/08/20 12:08:58;;;;;;;2.90;2.67;;;27.30;68.10;;;;;;5050610;28;20518;-71
2022/08/20 12:11:27;;;;;;;2.13;2.03;;;27.30;67.50;;;;;;5056206;28;20458;-71
2022/08/20 12:13:56;;;;;;;2.10;2.00;;;27.30;67.40;;;;;;5050506;28;20537;-73
2022/08/20 12:16:24;;;;;;;2.23;2.03;;;27.30;67.30;;;;;;5057290;28;20474;-71
2022/08/20 12:18:52;;;;;;;2.50;2.40;;;27.30;67.10;;;;;;5063738;28;20446;-71
2022/08/20 12:21:20;;;;;;;2.40;2.20;;;27.30;67.10;;;;;;5064061;28;20439;-71
2022/08/20 12:23:49;;;;;;;2.47;2.17;;;27.30;67.10;;;;;;5067201;28;20445;-71
2022/08/20 12:26:17;;;;;;;2.83;2.63;;;27.30;67.00;;;;;;5059643;28;20488;-71
2022/08/20 12:28:47;;;;;;;2.40;2.30;;;27.30;67.20;;;;;;5058456;28;20456;-71
2022/08/20 12:31:15;;;;;;;2.70;2.50;;;27.30;67.10;;;;;;5061826;28;20561;-71
2022/08/20 12:33:43;;;;;;;2.67;2.47;;;27.30;67.30;;;;;;5061641;28;20481;-72
2022/08/20 12:36:11;;;;;;;3.03;2.37;;;27.20;67.60;;;;;;5062424;28;20451;-71
2022/08/20 12:38:40;;;;;;;2.20;2.00;;;27.20;67.70;;;;;;5062488;28;20454;-73
2022/08/20 12:41:08;;;;;;;2.87;2.57;;;27.20;67.30;;;;;;5060897;28;20458;-72
2022/08/20 12:43:36;;;;;;;2.20;2.00;;;27.20;68.80;;;;;;5065594;28;20489;-73
2022/08/20 12:46:08;;;;;;;2.27;2.17;;;27.20;68.80;;;;;;5063925;28;20519;-70
2022/08/20 12:48:37;;;;;;;2.37;2.10;;;27.20;68.10;;;;;;5050614;28;20959;-71
2022/08/20 12:51:08;;;;;;;2.50;2.30;;;27.20;68.00;;;;;;5062155;28;20625;-72
2022/08/20 12:53:36;;;;;;;2.47;2.27;;;27.20;67.70;;;;;;5060137;28;20556;-71
2022/08/20 12:56:07;;;;;;;2.47;2.27;;;27.20;67.60;;;;;;5056807;28;20467;-71
2022/08/20 12:58:36;;;;;;;2.27;2.17;;;27.10;67.80;;;;;;5064247;28;20459;-71
2022/08/20 13:01:08;;;;;;;4.57;2.47;;;27.10;67.70;;;;;;5055304;28;20805;-71
2022/08/20 13:03:36;;;;;;;1.80;1.70;;;27.10;67.70;;;;;;5061036;28;20494;-74
2022/08/20 13:06:12;;;;;;;2.43;2.23;;;27.10;68.20;;;;;;5054419;28;20986;-71
2022/08/20 13:08:40;;;;;;;2.60;2.40;;;27.10;68.20;;;;;;5042332;28;20494;-72
2022/08/20 13:11:08;;;;;;;2.90;2.60;;;27.10;67.80;;;;;;5062552;28;20557;-71